Time;durP1;ratioP1;P1;durP2;ratioP2;P2;SDS_P1;SDS_P2;PMS_P1;PMS_P2;Temp;Humidity;BMP_temperature;BMP_pressure;BME280_temperature;BME280_humidity;BME280_pressure;Samples;Min_cycle;Max_cycle;Signal;HPM_P1;HPM_P2
2021/12/23 12:15:47;;;;;;;9.88;4.20;;;22.20;47.30;;;;;;5006326;28;86407;-55
2021/12/23 12:18:23;;;;;;;10.18;3.90;;;21.70;49.10;;;;;;5002130;28;86118;-55
2021/12/23 12:21:00;;;;;;;6.97;4.00;;;21.30;50.30;;;;;;4952392;27;86034;-60
2021/12/23 12:23:32;;;;;;;9.20;4.35;;;21.10;50.20;;;;;;4965974;28;87687;-60
2021/12/23 12:26:04;;;;;;;10.27;4.15;;;20.90;51.20;;;;;;4965795;28;87116;-54
2021/12/23 12:28:45;;;;;;;8.23;4.13;;;20.80;51.10;;;;;;4965286;28;86107;-60
2021/12/23 12:31:19;;;;;;;8.90;5.00;;;20.80;51.20;;;;;;4962483;28;86231;-60
2021/12/23 12:33:54;;;;;;;27.92;12.18;;;20.70;51.50;;;;;;4966556;28;86798;-58
2021/12/23 12:36:23;;;;;;;43.22;18.17;;;20.70;51.30;;;;;;4964892;28;86531;-60
2021/12/23 12:41:41;;;;;;;44.40;19.02;;;20.70;51.70;;;;;;4979011;28;87101;-60
2021/12/23 12:44:36;;;;;;;37.58;16.38;;;20.70;51.90;;;;;;4981287;28;86822;-59
2021/12/23 12:49:43;;;;;;;28.23;12.55;;;20.70;52.20;;;;;;4980559;28;86460;-60
2021/12/23 12:52:18;;;;;;;28.60;11.40;;;20.70;52.10;;;;;;4979680;28;86157;-62
2021/12/23 12:54:49;;;;;;;32.97;13.68;;;20.70;52.30;;;;;;4990544;28;88458;-62
2021/12/23 12:57:17;;;;;;;32.20;15.20;;;20.70;52.10;;;;;;4937988;28;87165;-61
2021/12/23 12:59:45;;;;;;;32.15;13.82;;;20.80;52.30;;;;;;5001470;28;86863;-58
2021/12/23 13:02:24;;;;;;;26.52;11.88;;;20.80;51.70;;;;;;4984485;28;86570;-49
2021/12/23 13:05:00;;;;;;;24.48;10.68;;;20.70;51.40;;;;;;5000577;28;87340;-59
2021/12/23 13:07:31;;;;;;;23.42;9.57;;;20.70;51.10;;;;;;5000226;28;86703;-53
2021/12/23 13:10:11;;;;;;;25.42;9.82;;;20.60;51.00;;;;;;5002568;28;86804;-51
2021/12/23 13:12:50;;;;;;;;;;;20.60;50.90;;;;;;4983623;28;86108;-59
2021/12/23 13:15:36;;;;;;;17.15;8.13;;;20.60;50.90;;;;;;4986210;28;86367;-58
2021/12/23 13:18:18;;;;;;;16.63;8.75;;;20.60;50.80;;;;;;4983418;28;87990;-55
2021/12/23 13:20:50;;;;;;;22.17;8.68;;;20.60;50.80;;;;;;4984892;28;86565;-56
2021/12/23 13:23:29;;;;;;;15.82;7.97;;;20.50;50.70;;;;;;4982633;28;86559;-62
2021/12/23 13:26:06;;;;;;;21.50;8.40;;;20.50;50.70;;;;;;4976497;28;85943;-62
2021/12/23 13:28:47;;;;;;;20.35;9.38;;;20.50;50.70;;;;;;4969199;28;89829;-53
2021/12/23 13:31:28;;;;;;;15.85;7.70;;;20.50;50.70;;;;;;4970848;28;86019;-61
2021/12/23 13:34:03;;;;;;;22.25;8.50;;;20.40;50.80;;;;;;4970681;28;85918;-59
2021/12/23 13:36:38;;;;;;;15.60;7.50;;;20.40;51.00;;;;;;4971815;28;87001;-53
2021/12/23 13:39:11;;;;;;;17.33;7.55;;;20.40;51.00;;;;;;4971648;28;87493;-60
2021/12/23 13:41:41;;;;;;;17.15;7.82;;;20.40;50.80;;;;;;4972054;28;86847;-61
2021/12/23 13:44:15;;;;;;;15.02;7.70;;;20.40;50.70;;;;;;4969730;28;86036;-58
2021/12/23 13:46:54;;;;;;;16.30;7.18;;;20.40;50.70;;;;;;4968882;28;90057;-56
2021/12/23 13:49:37;;;;;;;13.80;7.03;;;20.40;50.70;;;;;;4969101;28;87012;-58
2021/12/23 13:52:16;;;;;;;15.30;6.72;;;20.40;51.00;;;;;;5002218;28;86551;-59
2021/12/23 13:54:42;;;;;;;14.63;6.63;;;20.50;51.10;;;;;;4966933;28;86033;-58
2021/12/23 13:57:14;;;;;;;18.23;6.55;;;20.40;50.90;;;;;;4968561;28;90069;-56
2021/12/23 13:59:43;;;;;;;13.38;6.88;;;20.40;51.00;;;;;;4972525;28;86616;-57
2021/12/23 14:02:17;;;;;;;14.82;7.22;;;20.40;50.90;;;;;;4972015;28;86098;-57
2021/12/23 14:04:47;;;;;;;18.15;6.55;;;20.40;50.90;;;;;;4969010;28;86135;-60
2021/12/23 14:07:15;;;;;;;12.43;6.70;;;20.40;50.90;;;;;;4968032;28;87199;-58
2021/12/23 14:09:44;;;;;;;12.45;6.50;;;20.40;51.00;;;;;;4970723;28;86551;-58
2021/12/23 14:12:12;;;;;;;;;;;20.40;51.00;;;;;;4970452;28;85683;-57
2021/12/23 14:14:59;;;;;;;11.20;6.63;;;20.40;51.10;;;;;;4954909;28;86496;-56
2021/12/23 14:17:34;;;;;;;16.33;6.97;;;20.40;50.70;;;;;;4968998;28;90380;-52
2021/12/23 14:25:34;;;;;;;10.60;6.40;;;20.30;50.70;;;;;;4970605;28;86292;-61
2021/12/23 14:28:00;;;;;;;14.15;6.40;;;20.30;50.80;;;;;;4968732;28;89955;-58
2021/12/23 14:30:43;;;;;;;13.57;5.82;;;20.30;50.70;;;;;;4969617;28;87095;-59
2021/12/23 14:33:22;;;;;;;11.77;6.57;;;20.30;50.70;;;;;;4971233;28;85750;-57
2021/12/23 14:35:54;;;;;;;11.43;5.93;;;20.30;50.60;;;;;;4971202;28;86251;-57
2021/12/23 14:38:28;;;;;;;13.30;7.45;;;20.30;50.70;;;;;;4968509;28;89170;-53
2021/12/23 14:41:02;;;;;;;10.30;5.60;;;20.40;50.70;;;;;;4969275;28;86636;-55
2021/12/23 14:43:52;;;;;;;11.02;5.82;;;20.40;50.70;;;;;;4967375;28;85761;-54
2021/12/23 14:46:18;;;;;;;9.02;5.40;;;20.40;50.60;;;;;;4957539;28;87336;-55
2021/12/23 14:48:55;;;;;;;10.05;5.18;;;20.40;50.60;;;;;;4966819;28;88289;-55
2021/12/23 14:51:23;;;;;;;13.18;6.55;;;20.40;51.00;;;;;;4968052;28;86742;-55
2021/12/23 14:54:04;;;;;;;7.72;5.07;;;20.40;50.70;;;;;;4966993;28;86334;-55
2021/12/23 14:56:30;;;;;;;11.02;6.07;;;20.40;50.40;;;;;;4968611;28;87166;-55
2021/12/23 14:59:10;;;;;;;9.25;6.00;;;20.40;50.60;;;;;;4966772;28;89687;-62
2021/12/23 15:01:38;;;;;;;12.32;5.68;;;20.40;50.60;;;;;;4968449;28;86059;-56
2021/12/23 15:04:09;;;;;;;10.35;5.53;;;20.40;50.60;;;;;;4967444;28;86775;-63
2021/12/23 15:07:07;;;;;;;11.38;5.35;;;20.40;50.70;;;;;;4967704;28;86733;-52
2021/12/23 15:09:36;;;;;;;9.27;4.87;;;20.30;50.90;;;;;;4999755;28;90066;-52
2021/12/23 15:12:14;;;;;;;9.73;5.72;;;20.30;51.10;;;;;;4968974;28;89349;-53
2021/12/23 15:14:47;;;;;;;15.73;6.60;;;20.30;50.60;;;;;;4969322;28;85802;-53
2021/12/23 15:17:18;;;;;;;10.10;6.65;;;20.30;49.70;;;;;;4970196;28;86662;-55
2021/12/23 15:19:49;;;;;;;15.27;7.18;;;20.40;49.60;;;;;;4967776;28;90866;-54
2021/12/23 15:22:18;;;;;;;10.82;6.93;;;20.30;49.30;;;;;;4968838;28;89630;-51
2021/12/23 15:24:45;;;;;;;11.65;6.07;;;20.40;49.10;;;;;;4969360;28;86923;-51
2021/12/23 15:27:20;;;;;;;13.70;6.72;;;20.40;48.90;;;;;;4974074;22;87074;-76
2021/12/23 15:29:47;;;;;;;8.57;6.00;;;20.40;48.80;;;;;;4917036;28;86951;-77
2021/12/23 15:32:16;;;;;;;12.35;6.30;;;20.50;48.60;;;;;;4919621;28;86625;-77
2021/12/23 15:34:49;;;;;;;8.63;5.40;;;20.50;48.60;;;;;;4910077;28;86214;-77
2021/12/23 15:37:17;;;;;;;9.20;5.57;;;20.50;48.30;;;;;;4911859;28;86566;-77
2021/12/23 15:39:43;;;;;;;9.75;6.20;;;20.50;48.40;;;;;;4924934;28;89923;-77
2021/12/23 15:42:12;;;;;;;9.77;6.10;;;20.50;48.40;;;;;;4910519;28;86004;-77
2021/12/23 15:44:40;;;;;;;11.50;6.67;;;20.50;48.40;;;;;;4917595;28;86597;-77
2021/12/23 15:47:08;;;;;;;11.48;6.15;;;20.50;48.50;;;;;;4910777;28;86124;-76
2021/12/23 15:49:34;;;;;;;15.23;6.32;;;20.50;48.40;;;;;;4910270;28;88042;-76
2021/12/23 15:52:01;;;;;;;11.50;6.15;;;20.50;48.40;;;;;;4908651;28;86464;-76
2021/12/23 15:54:27;;;;;;;11.52;6.85;;;20.50;48.50;;;;;;4908522;28;86197;-76
2021/12/23 15:56:54;;;;;;;13.25;6.93;;;20.50;48.50;;;;;;4911360;28;86021;-76
2021/12/23 15:59:20;;;;;;;15.98;6.50;;;20.50;48.70;;;;;;4910196;28;86279;-76
2021/12/23 16:01:46;;;;;;;14.70;7.07;;;20.50;48.80;;;;;;4910758;28;86070;-76
2021/12/23 16:04:15;;;;;;;14.35;7.00;;;20.50;49.00;;;;;;4910129;28;86904;-76
2021/12/23 16:09:26;;;;;;;14.85;6.82;;;20.50;49.00;;;;;;4910261;28;86068;-76
2021/12/23 16:11:52;;;;;;;18.02;7.82;;;20.50;49.20;;;;;;4908624;28;86492;-76
2021/12/23 16:14:21;;;;;;;13.80;7.18;;;20.50;49.40;;;;;;4910202;28;86852;-76
2021/12/23 16:16:49;;;;;;;14.07;7.15;;;20.50;49.40;;;;;;4914073;28;86159;-76
2021/12/23 16:19:15;;;;;;;17.75;7.38;;;20.50;49.50;;;;;;4908685;28;90136;-76
2021/12/23 16:21:41;;;;;;;19.13;7.93;;;20.50;49.40;;;;;;4916659;28;86721;-76
2021/12/23 16:24:06;;;;;;;17.02;7.88;;;20.50;49.80;;;;;;4911813;28;86248;-76
2021/12/23 16:26:32;;;;;;;15.40;7.70;;;20.50;49.90;;;;;;4913309;28;85790;-76
2021/12/23 16:28:58;;;;;;;22.15;8.90;;;20.50;49.80;;;;;;4910208;28;87197;-76
2021/12/23 16:31:29;;;;;;;21.83;10.02;;;20.50;49.80;;;;;;4910805;28;86559;-76
2021/12/23 16:33:55;;;;;;;17.52;9.00;;;20.50;50.10;;;;;;4909485;28;85995;-76
2021/12/23 16:36:22;;;;;;;21.17;9.68;;;20.50;50.10;;;;;;4910775;28;86630;-76
2021/12/23 16:38:53;;;;;;;26.25;10.35;;;20.50;50.50;;;;;;4910933;28;86753;-77
2021/12/23 16:41:23;;;;;;;28.80;10.88;;;20.50;51.10;;;;;;4909588;28;86754;-77
2021/12/23 16:43:48;;;;;;;29.63;10.85;;;20.50;51.40;;;;;;4916757;28;86809;-76
2021/12/23 16:46:15;;;;;;;28.80;11.23;;;20.50;51.20;;;;;;4909112;28;86168;-77
2021/12/23 16:48:42;;;;;;;26.40;10.35;;;20.50;51.20;;;;;;4909248;28;86832;-77
2021/12/23 16:51:10;;;;;;;25.10;9.20;;;20.40;51.30;;;;;;4908146;28;86902;-77
2021/12/23 16:53:37;;;;;;;26.23;10.63;;;20.40;51.30;;;;;;4907601;28;86669;-77
2021/12/23 16:58:41;;;;;;;26.80;11.07;;;20.40;51.10;;;;;;4909436;28;86131;-77
2021/12/23 17:01:09;;;;;;;41.55;10.48;;;20.30;51.10;;;;;;4910133;28;87287;-77
2021/12/23 17:03:36;;;;;;;22.92;10.57;;;20.20;51.30;;;;;;4912431;28;86595;-77
2021/12/23 17:06:03;;;;;;;23.20;10.45;;;20.30;51.30;;;;;;4913243;28;86168;-77
2021/12/23 17:08:29;;;;;;;28.20;10.63;;;20.30;51.20;;;;;;4911300;28;88425;-77
2021/12/23 17:10:57;;;;;;;22.20;10.27;;;20.40;51.20;;;;;;4912943;28;86053;-77
2021/12/23 17:13:24;;;;;;;25.03;10.57;;;20.40;51.20;;;;;;4912700;28;86468;-77
2021/12/23 17:15:53;;;;;;;24.17;9.77;;;20.40;51.00;;;;;;4911673;28;85643;-77
2021/12/23 17:18:33;;;;;;;23.40;10.20;;;20.40;50.90;;;;;;4917964;28;89703;-77
2021/12/23 17:23:28;;;;;;;24.20;10.15;;;20.50;50.70;;;;;;4912347;28;86865;-77
2021/12/23 17:25:54;;;;;;;23.60;10.20;;;20.50;50.60;;;;;;4912624;28;86496;-77
2021/12/23 17:28:21;;;;;;;24.45;9.65;;;20.50;50.50;;;;;;4912209;28;87500;-79
2021/12/23 17:30:50;;;;;;;24.77;10.32;;;20.50;50.50;;;;;;4914000;28;86910;-77
2021/12/23 17:33:16;;;;;;;22.48;9.93;;;20.50;50.60;;;;;;4913245;28;86556;-77
2021/12/23 17:35:45;;;;;;;22.30;9.48;;;20.50;50.60;;;;;;4913125;28;85649;-77
2021/12/23 17:38:15;;;;;;;19.80;8.75;;;20.50;50.50;;;;;;4912812;28;86890;-77
2021/12/23 17:40:41;;;;;;;21.17;9.27;;;20.50;50.50;;;;;;4912035;28;87289;-77
2021/12/23 17:43:11;;;;;;;23.00;9.95;;;20.50;50.50;;;;;;4913849;28;87106;-77
2021/12/23 17:45:38;;;;;;;;;;;20.40;50.30;;;;;;4914322;28;86358;-77
2021/12/23 17:48:04;;;;;;;22.23;9.00;;;20.40;50.40;;;;;;4913357;28;90446;-78
2021/12/23 17:50:30;;;;;;;24.48;9.52;;;20.50;50.50;;;;;;4917535;28;89546;-77
2021/12/23 17:52:59;;;;;;;25.17;9.52;;;20.40;50.50;;;;;;4912769;28;86405;-78
2021/12/23 17:55:25;;;;;;;20.90;8.67;;;20.30;50.40;;;;;;4911836;28;85809;-78
2021/12/23 17:57:50;;;;;;;29.05;10.23;;;20.30;50.30;;;;;;4913110;28;86810;-78
2021/12/23 18:00:16;;;;;;;21.98;8.95;;;20.20;50.60;;;;;;4912358;28;85781;-78
2021/12/23 18:02:42;;;;;;;20.65;9.30;;;20.20;50.80;;;;;;4913276;28;85773;-79
2021/12/23 18:05:12;;;;;;;19.73;8.68;;;20.30;50.90;;;;;;4913458;28;87024;-78
2021/12/23 18:07:40;;;;;;;20.63;9.13;;;20.30;51.00;;;;;;4914472;28;86511;-78
2021/12/23 18:10:06;;;;;;;18.08;8.45;;;20.30;51.10;;;;;;4912965;28;86240;-78
2021/12/23 18:12:32;;;;;;;22.92;9.20;;;20.30;51.10;;;;;;4912930;28;85777;-78
2021/12/23 18:14:57;;;;;;;24.50;9.95;;;20.30;51.10;;;;;;4912918;28;86150;-79
2021/12/23 18:17:23;;;;;;;21.33;8.80;;;20.30;51.10;;;;;;4911254;28;90032;-78
2021/12/23 18:19:49;;;;;;;20.20;8.90;;;20.40;51.10;;;;;;4913751;28;86137;-78
2021/12/23 18:22:15;;;;;;;21.30;9.07;;;20.40;51.10;;;;;;4915154;28;86770;-79
2021/12/23 18:24:41;;;;;;;20.83;9.15;;;20.40;51.00;;;;;;4919108;28;86010;-78
2021/12/23 18:27:07;;;;;;;21.63;9.27;;;20.40;51.00;;;;;;4916044;28;86282;-79
2021/12/23 18:29:33;;;;;;;17.83;8.48;;;20.40;51.10;;;;;;4916252;28;86457;-78
2021/12/23 18:31:59;;;;;;;20.27;9.40;;;20.40;51.00;;;;;;4915930;28;86344;-79
2021/12/23 18:34:25;;;;;;;20.40;8.60;;;20.40;51.70;;;;;;4916733;28;85674;-77
2021/12/23 18:36:57;;;;;;;19.25;9.23;;;20.40;51.30;;;;;;4917429;28;87802;-77
2021/12/23 18:39:29;;;;;;;21.02;9.73;;;20.40;51.30;;;;;;4916315;28;87004;-77
2021/12/23 18:41:57;;;;;;;18.77;9.18;;;20.40;51.40;;;;;;4915824;28;85823;-77
2021/12/23 18:44:23;;;;;;;15.48;8.20;;;20.40;51.50;;;;;;4917774;28;86155;-77
2021/12/23 18:46:58;;;;;;;17.95;8.57;;;20.40;51.60;;;;;;4913914;28;88427;-78
2021/12/23 18:49:26;;;;;;;21.23;8.07;;;20.40;51.50;;;;;;4916408;28;85980;-77
2021/12/23 18:51:53;;;;;;;19.50;8.70;;;20.40;51.50;;;;;;4915397;28;86232;-80
2021/12/23 18:54:19;;;;;;;19.95;9.02;;;20.30;51.40;;;;;;4915066;28;87385;-80
2021/12/23 18:56:45;;;;;;;17.73;8.75;;;20.30;51.10;;;;;;4917031;28;88347;-79
2021/12/23 18:59:18;;;;;;;17.83;8.45;;;20.30;50.80;;;;;;4915281;28;86951;-78
2021/12/23 19:01:47;;;;;;;18.55;7.72;;;20.20;50.70;;;;;;4917423;28;86050;-80
2021/12/23 19:07:17;;;;;;;13.90;7.40;;;20.30;50.30;;;;;;4913794;28;87257;-79
2021/12/23 19:09:43;;;;;;;14.98;7.25;;;20.30;50.10;;;;;;4913602;28;85963;-79
2021/12/23 19:12:09;;;;;;;16.52;7.43;;;20.20;50.00;;;;;;4915297;28;86973;-79
2021/12/23 19:14:35;;;;;;;15.05;7.28;;;20.30;49.90;;;;;;4914746;28;85579;-80
2021/12/23 19:17:00;;;;;;;17.20;7.60;;;20.20;49.80;;;;;;4914238;28;86603;-78
2021/12/23 19:19:29;;;;;;;16.38;7.28;;;20.20;49.70;;;;;;4912914;28;89734;-79
2021/12/23 19:21:54;;;;;;;17.38;7.97;;;20.20;49.60;;;;;;4914840;28;85636;-78
2021/12/23 19:24:20;;;;;;;17.45;7.65;;;20.20;49.50;;;;;;4915334;28;86521;-77
2021/12/23 19:26:46;;;;;;;12.93;6.60;;;20.20;49.60;;;;;;4915422;28;87707;-77
2021/12/23 19:29:13;;;;;;;17.15;7.47;;;20.20;49.90;;;;;;4914383;28;85744;-78
2021/12/23 19:31:40;;;;;;;15.30;7.82;;;20.20;49.50;;;;;;4916567;28;86273;-78
2021/12/23 19:34:06;;;;;;;15.38;7.28;;;20.20;49.40;;;;;;4915187;28;86462;-79
2021/12/23 19:36:32;;;;;;;12.85;7.50;;;20.20;49.30;;;;;;4916688;28;85553;-77
2021/12/23 19:38:58;;;;;;;15.88;6.55;;;20.20;49.30;;;;;;4916150;28;86697;-77
2021/12/23 19:41:24;;;;;;;12.88;6.85;;;20.20;49.40;;;;;;4914741;28;85746;-79
2021/12/23 19:43:50;;;;;;;13.35;6.60;;;20.20;49.50;;;;;;4915654;28;85640;-77
2021/12/23 19:46:15;;;;;;;13.13;7.00;;;20.20;49.30;;;;;;4915980;28;86115;-80
2021/12/23 19:48:41;;;;;;;13.57;6.80;;;20.20;49.30;;;;;;4914311;28;86077;-78
2021/12/23 19:51:06;;;;;;;12.98;6.43;;;20.20;49.30;;;;;;4912858;28;86177;-79
2021/12/23 19:53:32;;;;;;;13.43;7.13;;;20.20;49.30;;;;;;4911511;28;86537;-80
2021/12/23 19:55:58;;;;;;;14.00;6.60;;;20.20;49.30;;;;;;4914386;28;88083;-77
2021/12/23 19:58:23;;;;;;;15.90;7.25;;;20.20;49.30;;;;;;4914704;28;86627;-78
2021/12/23 20:00:49;;;;;;;15.52;6.95;;;20.20;49.20;;;;;;4914683;28;86313;-77
2021/12/23 20:03:15;;;;;;;12.50;6.47;;;20.20;49.20;;;;;;4914907;28;85639;-78
2021/12/23 20:05:43;;;;;;;14.85;6.45;;;20.20;49.20;;;;;;4914331;28;85901;-78
2021/12/23 20:08:13;;;;;;;11.50;6.10;;;20.20;49.30;;;;;;4914331;28;86070;-77
2021/12/23 20:10:40;;;;;;;15.95;6.38;;;20.20;49.20;;;;;;4913975;28;86119;-77
2021/12/23 20:13:05;;;;;;;14.50;6.68;;;20.20;49.10;;;;;;4914201;28;86287;-78
2021/12/23 20:15:34;;;;;;;12.15;6.53;;;20.20;49.20;;;;;;4914787;28;86453;-77
2021/12/23 20:18:01;;;;;;;11.90;6.32;;;20.20;49.00;;;;;;4914539;28;86418;-78
2021/12/23 20:20:26;;;;;;;14.93;6.85;;;20.20;49.10;;;;;;4912798;28;86498;-77
2021/12/23 20:22:52;;;;;;;10.75;6.13;;;20.20;49.10;;;;;;4912466;28;86537;-78
2021/12/23 20:25:19;;;;;;;12.75;6.55;;;20.20;49.20;;;;;;4913551;28;87536;-77
2021/12/23 20:27:46;;;;;;;13.25;6.55;;;20.20;49.10;;;;;;4912418;28;85689;-77
2021/12/23 20:30:19;;;;;;;12.23;7.13;;;20.20;49.00;;;;;;4911866;28;86278;-78
2021/12/23 20:32:47;;;;;;;12.68;6.75;;;20.20;49.80;;;;;;4910360;28;86390;-77
2021/12/23 20:35:13;;;;;;;11.90;6.43;;;20.20;49.20;;;;;;4910516;28;86337;-78
2021/12/23 20:37:39;;;;;;;13.93;6.72;;;20.20;49.20;;;;;;4914426;28;85799;-78
2021/12/23 20:40:06;;;;;;;11.75;6.47;;;20.20;49.10;;;;;;4914551;28;86840;-76
2021/12/23 20:42:32;;;;;;;14.90;6.25;;;20.20;49.20;;;;;;4914106;28;86019;-77
2021/12/23 20:44:58;;;;;;;12.65;7.05;;;20.20;49.20;;;;;;4913509;28;87517;-77
2021/12/23 20:47:25;;;;;;;11.43;6.28;;;20.20;49.40;;;;;;4912645;28;88377;-78
2021/12/23 20:49:55;;;;;;;11.32;6.47;;;20.20;49.30;;;;;;4913867;28;86163;-78
2021/12/23 20:52:21;;;;;;;12.15;6.00;;;20.30;49.20;;;;;;4918070;28;86923;-78
2021/12/23 20:54:53;;;;;;;11.70;6.38;;;20.20;49.00;;;;;;4912140;28;86299;-76
2021/12/23 20:57:21;;;;;;;11.60;6.28;;;20.20;49.10;;;;;;4915097;28;86802;-78
2021/12/23 20:59:47;;;;;;;12.93;6.57;;;20.20;49.10;;;;;;4914654;28;86870;-79
2021/12/23 21:02:14;;;;;;;12.27;6.65;;;20.20;49.30;;;;;;4914153;28;86441;-79
2021/12/23 21:04:41;;;;;;;12.15;6.45;;;20.20;49.20;;;;;;4913790;28;86732;-78
2021/12/23 21:07:07;;;;;;;11.50;5.95;;;20.20;49.30;;;;;;4914014;28;86863;-77
2021/12/23 21:09:33;;;;;;;10.68;6.28;;;20.20;49.30;;;;;;4913954;28;86455;-78
2021/12/23 21:11:59;;;;;;;9.65;6.22;;;20.20;49.30;;;;;;4913454;28;86583;-78
2021/12/23 21:14:27;;;;;;;9.65;5.90;;;20.20;49.30;;;;;;4913770;28;86125;-77
2021/12/23 21:16:53;;;;;;;9.55;5.70;;;20.20;49.40;;;;;;4913419;28;86067;-77
2021/12/23 21:19:19;;;;;;;13.90;6.10;;;20.20;49.30;;;;;;4912967;28;87104;-77
2021/12/23 21:21:46;;;;;;;11.43;6.25;;;20.20;49.30;;;;;;4911844;28;86143;-79
2021/12/23 21:24:12;;;;;;;12.18;6.45;;;20.10;49.40;;;;;;4910475;28;87659;-77
2021/12/23 21:26:41;;;;;;;13.65;5.90;;;20.20;49.50;;;;;;4912907;28;85889;-77
2021/12/23 21:29:07;;;;;;;14.50;6.50;;;20.20;49.40;;;;;;4911553;28;86328;-77
2021/12/23 21:31:33;;;;;;;12.52;5.43;;;20.20;49.50;;;;;;4915891;28;86122;-77
2021/12/23 21:33:59;;;;;;;10.35;6.00;;;20.10;49.50;;;;;;4913826;28;87449;-77
2021/12/23 21:36:26;;;;;;;12.77;5.95;;;20.20;49.50;;;;;;4915531;28;86419;-79
2021/12/23 21:38:52;;;;;;;10.98;6.05;;;20.20;49.60;;;;;;4916827;28;86261;-77
2021/12/23 21:41:19;;;;;;;8.45;5.45;;;20.10;49.60;;;;;;4914948;28;85682;-77
2021/12/23 21:43:46;;;;;;;15.90;6.60;;;20.10;49.60;;;;;;4914280;28;87486;-78
2021/12/23 21:46:13;;;;;;;12.02;5.95;;;20.10;49.70;;;;;;4914954;28;86768;-78
2021/12/23 21:48:39;;;;;;;10.63;5.60;;;20.10;50.00;;;;;;4915183;28;86184;-78
2021/12/23 21:51:09;;;;;;;11.40;6.00;;;20.10;50.10;;;;;;4915784;28;86096;-77
2021/12/23 21:53:35;;;;;;;11.15;5.85;;;20.00;50.00;;;;;;4914929;28;87440;-77
2021/12/23 21:56:01;;;;;;;12.55;5.90;;;20.00;50.30;;;;;;4914202;28;86254;-79
2021/12/23 21:58:26;;;;;;;9.10;5.70;;;20.00;50.30;;;;;;4913148;28;85731;-79
2021/12/23 22:00:52;;;;;;;12.13;6.10;;;20.00;50.40;;;;;;4913899;28;87331;-79
2021/12/23 22:03:18;;;;;;;14.02;5.63;;;19.90;50.50;;;;;;4913439;28;87868;-79
2021/12/23 22:05:48;;;;;;;11.35;6.72;;;19.90;50.50;;;;;;4915144;28;86121;-77
2021/12/23 22:08:14;;;;;;;11.45;6.03;;;19.90;50.40;;;;;;4915256;28;86062;-77
2021/12/23 22:10:40;;;;;;;10.70;5.97;;;19.90;50.60;;;;;;4914193;28;86077;-77
2021/12/23 22:13:06;;;;;;;11.70;6.07;;;19.90;50.60;;;;;;4911398;28;87473;-79
2021/12/23 22:15:34;;;;;;;12.30;6.43;;;19.80;50.60;;;;;;4913808;28;86645;-78
2021/12/23 22:18:01;;;;;;;11.38;5.85;;;19.80;50.80;;;;;;4915028;28;86396;-78
2021/12/23 22:20:27;;;;;;;11.10;6.35;;;19.80;50.80;;;;;;4914139;28;86710;-79
2021/12/23 22:23:00;;;;;;;9.52;5.75;;;19.80;50.90;;;;;;4912983;28;86542;-79
2021/12/23 22:25:26;;;;;;;11.07;5.88;;;19.80;50.90;;;;;;4912818;28;87260;-77
2021/12/23 22:27:52;;;;;;;9.93;5.78;;;19.80;50.80;;;;;;4913350;28;86459;-78
2021/12/23 22:30:18;;;;;;;8.20;5.50;;;19.80;50.90;;;;;;4915165;28;86059;-78
2021/12/23 22:32:44;;;;;;;11.18;6.15;;;19.80;51.00;;;;;;4914721;28;86948;-78
2021/12/23 22:35:10;;;;;;;9.05;6.25;;;19.80;51.00;;;;;;4914283;28;86265;-78
2021/12/23 22:37:36;;;;;;;8.98;5.68;;;19.80;50.90;;;;;;4913915;28;86018;-79
2021/12/23 22:40:05;;;;;;;12.50;6.57;;;19.70;50.90;;;;;;4914061;28;86899;-78
2021/12/23 22:42:31;;;;;;;10.52;5.50;;;19.70;51.10;;;;;;4920995;28;86935;-77
2021/12/23 22:44:56;;;;;;;10.25;5.60;;;19.70;51.10;;;;;;4914141;28;86174;-78
2021/12/23 22:47:24;;;;;;;11.50;5.63;;;19.70;50.90;;;;;;4912811;28;85994;-78
2021/12/23 22:49:50;;;;;;;11.52;5.70;;;19.70;51.00;;;;;;4913897;28;86191;-78
2021/12/23 22:52:16;;;;;;;11.77;5.80;;;19.70;51.00;;;;;;4910910;28;90026;-77
2021/12/23 22:54:42;;;;;;;12.38;5.93;;;19.70;51.00;;;;;;4913073;28;86208;-78
2021/12/23 22:57:09;;;;;;;11.00;6.22;;;19.70;51.00;;;;;;4913944;28;86600;-77
2021/12/23 22:59:35;;;;;;;10.43;5.65;;;19.70;51.10;;;;;;4913130;28;86439;-78
2021/12/23 23:02:02;;;;;;;9.95;6.03;;;19.70;51.00;;;;;;4913622;28;86858;-78
2021/12/23 23:04:28;;;;;;;9.38;5.47;;;19.60;51.20;;;;;;4913060;28;86807;-78
2021/12/23 23:06:53;;;;;;;9.98;5.80;;;19.60;51.20;;;;;;4914233;28;86764;-77
2021/12/23 23:09:19;;;;;;;10.30;5.68;;;19.70;51.20;;;;;;4914273;28;86064;-78
2021/12/23 23:11:48;;;;;;;7.63;5.03;;;19.60;51.20;;;;;;4912854;28;86355;-78
2021/12/23 23:16:48;;;;;;;7.80;5.47;;;19.60;51.30;;;;;;4913926;28;86105;-78
2021/12/23 23:19:23;;;;;;;8.55;5.30;;;19.60;51.30;;;;;;4913926;28;86178;-78
2021/12/23 23:21:50;;;;;;;10.50;5.70;;;19.60;51.40;;;;;;4913592;28;88390;-79
2021/12/23 23:26:55;;;;;;;8.02;5.32;;;19.50;51.30;;;;;;4914063;28;85910;-78
2021/12/23 23:40:31;;;;;;;9.88;5.80;;;19.50;51.50;;;;;;4912862;28;86335;-78
2021/12/23 23:42:59;;;;;;;9.27;5.53;;;19.50;51.60;;;;;;4913250;28;86237;-78
2021/12/23 23:45:30;;;;;;;7.05;5.10;;;19.50;52.20;;;;;;4913603;28;87027;-78
2021/12/23 23:47:59;;;;;;;8.43;5.22;;;19.50;51.60;;;;;;4913071;28;86345;-76
2021/12/23 23:50:37;;;;;;;10.73;5.90;;;19.50;51.70;;;;;;4913748;28;86369;-79
2021/12/23 23:53:09;;;;;;;10.98;6.13;;;19.50;51.60;;;;;;4912685;28;86378;-78
2021/12/23 23:55:38;;;;;;;7.63;5.30;;;19.50;51.70;;;;;;4912924;28;86367;-78
2021/12/23 23:58:06;;;;;;;10.77;5.40;;;19.50;51.70;;;;;;4913463;28;86467;-77
